createdAt,value
2016-07-22T00:00:24.545Z,1005.52
2016-07-22T00:01:24.531Z,1005.53
2016-07-22T00:02:24.516Z,1005.52
2016-07-22T00:03:24.502Z,1005.46
2016-07-22T00:04:24.487Z,1005.48
2016-07-22T00:05:24.472Z,1005.46
2016-07-22T00:06:24.459Z,1005.43
2016-07-22T00:07:24.442Z,1005.46
2016-07-22T00:08:24.428Z,1005.46
2016-07-22T00:09:24.414Z,1005.48
2016-07-22T00:10:24.399Z,1005.49
2016-07-22T00:11:24.383Z,1005.47
2016-07-22T00:12:24.368Z,1005.46
2016-07-22T00:13:24.355Z,1005.46
2016-07-22T00:14:24.341Z,1005.44
2016-07-22T00:15:24.324Z,1005.46
2016-07-22T00:16:24.310Z,1005.43
2016-07-22T00:17:24.297Z,1005.45
2016-07-22T00:18:24.282Z,1005.45
2016-07-22T00:19:24.267Z,1005.4
2016-07-22T00:20:24.253Z,1005.43
2016-07-22T00:21:24.237Z,1005.47
2016-07-22T00:22:24.222Z,1005.47
2016-07-22T00:23:24.209Z,1005.53
2016-07-22T00:24:24.193Z,1005.5
2016-07-22T00:25:24.179Z,1005.5
2016-07-22T00:26:24.164Z,1005.52
2016-07-22T00:27:24.149Z,1005.49
2016-07-22T00:28:24.135Z,1005.48
2016-07-22T00:29:24.120Z,1005.43
2016-07-22T00:30:24.106Z,1005.42
2016-07-22T00:31:24.090Z,1005.42
2016-07-22T00:32:24.077Z,1005.43
2016-07-22T00:33:24.060Z,1005.39
2016-07-22T00:34:24.047Z,1005.39
2016-07-22T00:35:24.033Z,1005.4
2016-07-22T00:36:24.017Z,1005.4
2016-07-22T00:37:24.002Z,1005.42
2016-07-22T00:38:23.986Z,1005.39
2016-07-22T00:39:23.974Z,1005.41
2016-07-22T00:40:23.957Z,1005.45
2016-07-22T00:43:23.914Z,1005.51
2016-07-22T00:44:23.899Z,1005.5
2016-07-22T00:45:23.883Z,1005.46
2016-07-22T00:46:23.869Z,1005.47
2016-07-22T00:47:23.854Z,1005.43
2016-07-22T00:48:23.839Z,1005.4
2016-07-22T00:49:23.823Z,1005.47
2016-07-22T00:50:23.812Z,1005.39
2016-07-22T00:51:23.794Z,1005.37
2016-07-22T00:52:23.781Z,1005.39
2016-07-22T00:53:23.766Z,1005.34
2016-07-22T00:54:23.750Z,1005.35
2016-07-22T00:55:23.736Z,1005.32
2016-07-22T00:56:23.720Z,1005.31
2016-07-22T00:57:23.708Z,1005.3
2016-07-22T00:58:23.692Z,1005.25
2016-07-22T00:59:23.677Z,1005.27
2016-07-22T01:00:23.662Z,1005.25
2016-07-22T01:01:23.648Z,1005.25
2016-07-22T01:02:23.631Z,1005.28
2016-07-22T01:03:23.617Z,1005.26
2016-07-22T01:04:23.602Z,1005.26
2016-07-22T01:05:23.587Z,1005.31
2016-07-22T01:06:23.573Z,1005.34
2016-07-22T01:07:23.558Z,1005.41
2016-07-22T01:08:23.544Z,1005.42
2016-07-22T01:09:23.528Z,1005.44
2016-07-22T01:10:23.514Z,1005.41
2016-07-22T01:11:23.498Z,1005.42
2016-07-22T01:12:23.483Z,1005.4
2016-07-22T01:13:23.469Z,1005.43
2016-07-22T01:14:23.454Z,1005.43
2016-07-22T01:15:23.440Z,1005.38
2016-07-22T01:16:23.425Z,1005.41
2016-07-22T01:17:23.408Z,1005.4
2016-07-22T01:18:23.395Z,1005.4
2016-07-22T01:19:23.379Z,1005.41
2016-07-22T01:20:23.366Z,1005.39
2016-07-22T01:21:23.350Z,1005.44
2016-07-22T01:22:23.333Z,1005.4
2016-07-22T01:23:23.319Z,1005.39
2016-07-22T01:24:23.303Z,1005.36
2016-07-22T01:25:23.288Z,1005.34
2016-07-22T01:26:23.274Z,1005.35
2016-07-22T01:27:23.260Z,1005.37
2016-07-22T01:28:23.244Z,1005.34
2016-07-22T01:29:23.228Z,1005.32
2016-07-22T01:30:23.214Z,1005.34
2016-07-22T01:31:23.199Z,1005.35
2016-07-22T01:32:23.184Z,1005.35
2016-07-22T01:33:23.168Z,1005.39
2016-07-22T01:34:23.154Z,1005.36
2016-07-22T01:35:23.138Z,1005.39
2016-07-22T01:36:23.123Z,1005.37
2016-07-22T01:37:23.110Z,1005.4
2016-07-22T01:38:23.100Z,1005.42
2016-07-22T01:39:23.079Z,1005.41
2016-07-22T01:40:23.063Z,1005.45
2016-07-22T01:41:23.047Z,1005.42
2016-07-22T01:42:23.033Z,1005.44
2016-07-22T01:43:23.019Z,1005.43
2016-07-22T01:44:23.003Z,1005.45
2016-07-22T01:45:22.988Z,1005.51
2016-07-22T01:46:22.972Z,1005.48
2016-07-22T01:47:22.958Z,1005.5
2016-07-22T01:48:22.942Z,1005.5
2016-07-22T01:49:22.928Z,1005.46
2016-07-22T01:50:22.912Z,1005.47
2016-07-22T01:51:22.898Z,1005.5
2016-07-22T01:52:22.882Z,1005.54
2016-07-22T01:53:22.867Z,1005.52
2016-07-22T01:54:22.851Z,1005.54
2016-07-22T01:55:22.837Z,1005.55
2016-07-22T01:56:22.822Z,1005.56
2016-07-22T01:57:22.807Z,1005.53
2016-07-22T01:58:22.790Z,1005.55
2016-07-22T01:59:22.777Z,1005.55
2016-07-22T02:00:22.762Z,1005.53
2016-07-22T02:01:22.747Z,1005.57
2016-07-22T02:02:22.730Z,1005.55
2016-07-22T02:03:22.717Z,1005.58
2016-07-22T02:04:22.700Z,1005.54
2016-07-22T02:05:22.684Z,1005.58
2016-07-22T02:06:22.669Z,1005.56
2016-07-22T02:07:22.654Z,1005.54
2016-07-22T02:08:22.639Z,1005.54
2016-07-22T02:09:22.625Z,1005.56
2016-07-22T02:10:22.610Z,1005.58
2016-07-22T02:11:22.594Z,1005.57
2016-07-22T02:12:22.579Z,1005.56
2016-07-22T02:13:22.564Z,1005.56
2016-07-22T02:14:22.554Z,1005.55
2016-07-22T02:15:22.534Z,1005.54
2016-07-22T02:16:22.519Z,1005.52
2016-07-22T02:17:22.503Z,1005.48
2016-07-22T02:18:22.489Z,1005.48
2016-07-22T02:19:22.473Z,1005.47
2016-07-22T02:20:22.459Z,1005.44
2016-07-22T02:21:22.442Z,1005.48
2016-07-22T02:22:22.427Z,1005.48
2016-07-22T02:23:22.411Z,1005.5
2016-07-22T02:24:22.397Z,1005.51
2016-07-22T02:25:22.381Z,1005.52
2016-07-22T02:26:22.370Z,1005.45
2016-07-22T02:27:22.351Z,1005.46
2016-07-22T02:28:22.336Z,1005.48
2016-07-22T02:29:22.320Z,1005.46
2016-07-22T02:30:22.304Z,1005.52
2016-07-22T02:31:22.288Z,1005.51
2016-07-22T02:32:22.275Z,1005.53
2016-07-22T02:33:22.259Z,1005.47
2016-07-22T02:34:22.243Z,1005.49
2016-07-22T02:35:22.228Z,1005.44
2016-07-22T02:36:22.212Z,1005.45
2016-07-22T02:37:22.197Z,1005.41
2016-07-22T02:38:22.181Z,1005.4
2016-07-22T02:39:22.166Z,1005.4
2016-07-22T02:40:22.152Z,1005.45
2016-07-22T02:41:22.137Z,1005.41
2016-07-22T02:42:22.169Z,1005.43
2016-07-22T02:43:22.103Z,1005.43
2016-07-22T02:44:22.090Z,1005.4
2016-07-22T02:45:22.073Z,1005.4
2016-07-22T02:46:22.057Z,1005.44
2016-07-22T02:47:22.042Z,1005.46
2016-07-22T02:48:22.026Z,1005.42
2016-07-22T02:49:22.011Z,1005.42
2016-07-22T02:50:21.997Z,1005.44
2016-07-22T02:51:21.982Z,1005.41
2016-07-22T02:52:21.965Z,1005.42
2016-07-22T02:53:21.950Z,1005.44
2016-07-22T02:54:21.935Z,1005.45
2016-07-22T02:55:21.919Z,1005.43
2016-07-22T02:56:21.904Z,1005.46
2016-07-22T02:57:21.887Z,1005.5
2016-07-22T02:58:21.872Z,1005.5
2016-07-22T02:59:21.855Z,1005.47
2016-07-22T03:00:21.842Z,1005.45
2016-07-22T03:01:21.825Z,1005.41
2016-07-22T03:02:21.812Z,1005.43
2016-07-22T03:03:21.795Z,1005.45
2016-07-22T03:04:21.778Z,1005.46
2016-07-22T03:05:21.763Z,1005.45
2016-07-22T03:06:21.748Z,1005.46
2016-07-22T03:07:21.731Z,1005.52
2016-07-22T03:08:21.720Z,1005.54
2016-07-22T03:09:21.701Z,1005.5
2016-07-22T03:10:21.687Z,1005.49
2016-07-22T03:11:21.670Z,1005.51
2016-07-22T03:12:21.654Z,1005.52
2016-07-22T03:13:21.640Z,1005.52
2016-07-22T03:14:21.623Z,1005.51
2016-07-22T03:15:21.608Z,1005.49
2016-07-22T03:16:21.593Z,1005.5
2016-07-22T03:17:21.578Z,1005.52
2016-07-22T03:18:21.562Z,1005.5
2016-07-22T03:19:21.547Z,1005.53
2016-07-22T03:20:21.531Z,1005.56
2016-07-22T03:21:21.514Z,1005.54
2016-07-22T03:22:21.498Z,1005.53
2016-07-22T03:23:21.484Z,1005.53
2016-07-22T03:24:21.469Z,1005.49
2016-07-22T03:25:21.452Z,1005.5
2016-07-22T03:26:21.438Z,1005.46
2016-07-22T03:27:21.423Z,1005.46
2016-07-22T03:28:21.408Z,1005.49
2016-07-22T03:29:21.391Z,1005.48
2016-07-22T03:30:21.377Z,1005.46
2016-07-22T03:31:21.362Z,1005.47
2016-07-22T03:32:21.345Z,1005.46
2016-07-22T03:33:21.329Z,1005.47
2016-07-22T03:34:21.315Z,1005.4
2016-07-22T03:35:21.300Z,1005.44
2016-07-22T03:36:21.283Z,1005.43
2016-07-22T03:37:21.267Z,1005.43
2016-07-22T03:38:21.252Z,1005.43
2016-07-22T03:39:21.236Z,1005.42
2016-07-22T03:40:21.222Z,1005.4
2016-07-22T03:41:21.206Z,1005.44
2016-07-22T03:42:21.191Z,1005.45
2016-07-22T03:43:21.175Z,1005.43
2016-07-22T03:44:21.159Z,1005.45
2016-07-22T03:45:21.145Z,1005.42
2016-07-22T03:46:21.130Z,1005.47
2016-07-22T03:47:21.113Z,1005.44
2016-07-22T03:48:21.098Z,1005.42
2016-07-22T03:49:21.095Z,1005.38
2016-07-22T03:50:21.069Z,1005.38
2016-07-22T03:51:21.054Z,1005.4
2016-07-22T03:52:21.038Z,1005.36
2016-07-22T03:53:21.021Z,1005.32
2016-07-22T03:54:21.006Z,1005.35
2016-07-22T03:55:20.991Z,1005.33
2016-07-22T03:56:20.977Z,1005.32
2016-07-22T03:57:20.961Z,1005.29
2016-07-22T03:58:20.944Z,1005.28
2016-07-22T03:59:20.931Z,1005.28
2016-07-22T04:00:20.915Z,1005.27
2016-07-22T04:01:20.900Z,1005.2
2016-07-22T04:02:20.885Z,1005.19
2016-07-22T04:03:20.870Z,1005.22
2016-07-22T04:04:20.855Z,1005.15
2016-07-22T04:05:20.838Z,1005.17
2016-07-22T04:06:20.823Z,1005.16
2016-07-22T04:07:20.808Z,1005.17
2016-07-22T04:08:20.792Z,1005.16
2016-07-22T04:09:20.777Z,1005.17
2016-07-22T04:10:20.762Z,1005.18
2016-07-22T04:11:20.748Z,1005.17
2016-07-22T04:12:20.730Z,1005.2
2016-07-22T04:13:20.715Z,1005.16
2016-07-22T04:14:20.700Z,1005.2
2016-07-22T04:15:20.685Z,1005.16
2016-07-22T04:16:20.670Z,1005.17
2016-07-22T04:17:20.655Z,1005.17
2016-07-22T04:18:20.641Z,1005.2
2016-07-22T04:19:20.625Z,1005.16
2016-07-22T04:20:20.610Z,1005.19
2016-07-22T04:21:20.594Z,1005.2
2016-07-22T04:22:20.580Z,1005.21
2016-07-22T04:23:20.563Z,1005.25
2016-07-22T04:24:20.549Z,1005.24
2016-07-22T04:25:20.541Z,1005.22
2016-07-22T04:26:20.519Z,1005.25
2016-07-22T04:27:20.503Z,1005.21
2016-07-22T04:28:20.488Z,1005.25
2016-07-22T04:29:20.475Z,1005.19
2016-07-22T04:30:20.460Z,1005.16
2016-07-22T04:31:20.443Z,1005.13
2016-07-22T04:32:20.432Z,1005.13
2016-07-22T04:33:20.416Z,1005.11
2016-07-22T04:34:20.398Z,1005.15
2016-07-22T04:35:20.385Z,1005.12
2016-07-22T04:36:20.369Z,1005.13
2016-07-22T04:37:20.354Z,1005.14
2016-07-22T04:38:20.340Z,1005.13
2016-07-22T04:39:20.325Z,1005.14
2016-07-22T04:40:20.311Z,1005.18
2016-07-22T04:41:20.295Z,1005.2
2016-07-22T04:42:20.280Z,1005.19
2016-07-22T04:43:20.269Z,1005.24
2016-07-22T04:44:20.251Z,1005.2
2016-07-22T04:45:20.235Z,1005.24
2016-07-22T04:46:20.220Z,1005.26
2016-07-22T04:47:20.206Z,1005.23
2016-07-22T04:48:20.191Z,1005.25
2016-07-22T04:49:20.176Z,1005.24
2016-07-22T04:50:20.162Z,1005.23
2016-07-22T04:51:20.147Z,1005.23
2016-07-22T04:52:20.140Z,1005.26
2016-07-22T04:53:20.118Z,1005.25
2016-07-22T04:54:20.104Z,1005.29
2016-07-22T04:55:20.090Z,1005.3
2016-07-22T04:56:20.073Z,1005.34
2016-07-22T04:57:20.059Z,1005.35
2016-07-22T04:58:20.045Z,1005.33
2016-07-22T04:59:20.032Z,1005.32
2016-07-22T05:00:20.021Z,1005.32
2016-07-22T05:01:20.000Z,1005.34
2016-07-22T05:02:19.987Z,1005.34
2016-07-22T05:03:19.972Z,1005.34
2016-07-22T05:04:19.957Z,1005.35
2016-07-22T05:05:19.944Z,1005.38
2016-07-22T05:06:19.930Z,1005.34
2016-07-22T05:07:19.914Z,1005.36
2016-07-22T05:08:19.900Z,1005.37
2016-07-22T05:09:19.887Z,1005.37
2016-07-22T05:10:19.873Z,1005.38
2016-07-22T05:11:19.856Z,1005.4
2016-07-22T05:12:19.842Z,1005.41
2016-07-22T05:13:19.829Z,1005.42
2016-07-22T05:14:19.815Z,1005.44
2016-07-22T05:15:19.801Z,1005.43
2016-07-22T05:16:19.787Z,1005.46
2016-07-22T05:17:19.772Z,1005.44
2016-07-22T05:18:19.757Z,1005.45
2016-07-22T05:19:19.743Z,1005.5
2016-07-22T05:20:19.728Z,1005.5
2016-07-22T05:21:19.715Z,1005.49
2016-07-22T05:22:19.700Z,1005.5
2016-07-22T05:23:19.685Z,1005.56
2016-07-22T05:24:19.672Z,1005.52
2016-07-22T05:25:19.659Z,1005.54
2016-07-22T05:26:19.644Z,1005.54
2016-07-22T05:27:19.631Z,1005.58
2016-07-22T05:28:19.616Z,1005.57
2016-07-22T05:29:19.601Z,1005.58
2016-07-22T05:30:19.587Z,1005.62
2016-07-22T05:31:19.575Z,1005.59
2016-07-22T05:32:19.559Z,1005.6
2016-07-22T05:33:19.545Z,1005.64
2016-07-22T05:34:19.531Z,1005.62
2016-07-22T05:35:19.517Z,1005.62
2016-07-22T05:36:19.501Z,1005.63
2016-07-22T05:37:19.486Z,1005.66
2016-07-22T05:38:19.473Z,1005.66
2016-07-22T05:39:19.459Z,1005.68
2016-07-22T05:40:19.444Z,1005.7
2016-07-22T05:41:19.430Z,1005.71
2016-07-22T05:42:19.416Z,1005.71
2016-07-22T05:43:19.402Z,1005.74
2016-07-22T05:44:19.388Z,1005.72
2016-07-22T05:45:19.373Z,1005.72
2016-07-22T05:46:19.359Z,1005.73
2016-07-22T05:47:19.344Z,1005.74
2016-07-22T05:48:19.329Z,1005.75
2016-07-22T05:49:19.317Z,1005.76
2016-07-22T05:50:19.303Z,1005.78
2016-07-22T05:51:19.287Z,1005.79
2016-07-22T05:52:19.272Z,1005.77
2016-07-22T05:53:19.258Z,1005.76
2016-07-22T05:54:19.244Z,1005.76
2016-07-22T05:55:19.229Z,1005.76
2016-07-22T05:56:19.217Z,1005.78
2016-07-22T05:57:19.203Z,1005.76
2016-07-22T05:58:19.192Z,1005.78
2016-07-22T05:59:19.175Z,1005.8
2016-07-22T06:00:19.161Z,1005.74
2016-07-22T06:01:19.147Z,1005.73
2016-07-22T06:02:19.134Z,1005.77
2016-07-22T06:03:19.120Z,1005.83
2016-07-22T06:04:19.108Z,1005.81
2016-07-22T06:05:19.093Z,1005.83
2016-07-22T06:06:19.080Z,1005.8
2016-07-22T06:07:19.067Z,1005.79
2016-07-22T06:08:19.054Z,1005.78
2016-07-22T06:09:19.040Z,1005.81
2016-07-22T06:10:19.027Z,1005.77
2016-07-22T06:11:19.015Z,1005.8
2016-07-22T06:12:19.002Z,1005.79
2016-07-22T06:13:18.989Z,1005.77
2016-07-22T06:14:18.976Z,1005.82
2016-07-22T06:15:18.963Z,1005.75
2016-07-22T06:16:18.952Z,1005.74
2016-07-22T06:17:18.938Z,1005.74
2016-07-22T06:18:18.929Z,1005.71
2016-07-22T06:19:18.915Z,1005.74
2016-07-22T06:20:18.902Z,1005.76
2016-07-22T06:21:18.968Z,1005.73
2016-07-22T06:22:18.877Z,1005.73
2016-07-22T06:23:18.866Z,1005.73
2016-07-22T06:24:18.853Z,1005.72
2016-07-22T06:25:18.842Z,1005.75
2016-07-22T06:26:18.830Z,1005.77
2016-07-22T06:27:18.819Z,1005.81
2016-07-22T06:28:18.806Z,1005.8
2016-07-22T06:29:18.794Z,1005.79
2016-07-22T06:30:18.783Z,1005.76
2016-07-22T06:31:18.771Z,1005.75
2016-07-22T06:32:18.761Z,1005.78
2016-07-22T06:33:18.751Z,1005.78
2016-07-22T06:34:18.739Z,1005.73
2016-07-22T06:35:18.728Z,1005.72
2016-07-22T06:36:18.724Z,1005.72
2016-07-22T06:37:18.707Z,1005.72
2016-07-22T06:38:18.696Z,1005.68
2016-07-22T06:39:18.748Z,1005.68
2016-07-22T06:40:18.871Z,1005.69
2016-07-22T06:41:18.665Z,1005.65
2016-07-22T06:42:18.818Z,1005.69
2016-07-22T06:43:18.645Z,1005.65
2016-07-22T06:44:18.634Z,1005.7
2016-07-22T06:45:18.624Z,1005.68
2016-07-22T06:46:18.613Z,1005.68
2016-07-22T06:47:18.604Z,1005.68
2016-07-22T06:48:18.595Z,1005.66
2016-07-22T06:49:18.584Z,1005.66
2016-07-22T06:50:18.575Z,1005.66
2016-07-22T06:51:18.564Z,1005.63
2016-07-22T06:52:18.555Z,1005.64
2016-07-22T06:53:18.545Z,1005.64
2016-07-22T06:54:18.535Z,1005.63
2016-07-22T06:55:18.527Z,1005.63
2016-07-22T06:56:18.517Z,1005.63
2016-07-22T06:57:18.507Z,1005.6
2016-07-22T06:58:18.498Z,1005.65
2016-07-22T06:59:18.488Z,1005.68
2016-07-22T07:00:18.481Z,1005.65
2016-07-22T07:01:18.471Z,1005.67
2016-07-22T07:02:18.462Z,1005.68
2016-07-22T07:03:18.455Z,1005.61
2016-07-22T07:04:18.498Z,1005.69
2016-07-22T07:05:18.507Z,1005.69
2016-07-22T07:06:18.545Z,1005.71
2016-07-22T07:07:18.420Z,1005.68
2016-07-22T07:08:18.415Z,1005.67
2016-07-22T07:09:18.403Z,1005.67
2016-07-22T07:10:18.534Z,1005.69
2016-07-22T07:11:18.393Z,1005.71
2016-07-22T07:12:18.378Z,1005.68
2016-07-22T07:13:18.379Z,1005.73
2016-07-22T07:14:18.363Z,1005.75
2016-07-22T07:15:18.354Z,1005.7
2016-07-22T07:16:18.347Z,1005.73
2016-07-22T07:17:18.339Z,1005.72
2016-07-22T07:18:18.394Z,1005.7
2016-07-22T07:19:18.322Z,1005.7
2016-07-22T07:20:18.314Z,1005.76
2016-07-22T07:21:18.379Z,1005.73
2016-07-22T07:22:18.345Z,1005.73
2016-07-22T07:23:18.293Z,1005.73
2016-07-22T07:24:18.352Z,1005.72
2016-07-22T07:25:18.599Z,1005.71
2016-07-22T07:26:18.268Z,1005.72
2016-07-22T07:27:18.263Z,1005.68
2016-07-22T07:28:18.254Z,1005.76
2016-07-22T07:29:18.247Z,1005.7
2016-07-22T07:30:18.240Z,1005.71
2016-07-22T07:31:18.351Z,1005.7
2016-07-22T07:32:18.231Z,1005.71
2016-07-22T07:33:18.219Z,1005.67
2016-07-22T07:34:18.212Z,1005.69
2016-07-22T07:35:18.209Z,1005.69
2016-07-22T07:36:18.199Z,1005.69
2016-07-22T07:37:18.198Z,1005.65
2016-07-22T07:38:18.187Z,1005.69
2016-07-22T07:39:18.275Z,1005.66
2016-07-22T07:40:18.176Z,1005.66
2016-07-22T07:41:18.168Z,1005.69
2016-07-22T07:42:18.163Z,1005.7
2016-07-22T07:43:18.208Z,1005.71
2016-07-22T07:44:18.150Z,1005.74
2016-07-22T07:45:18.145Z,1005.73
2016-07-22T07:46:18.143Z,1005.75
2016-07-22T07:47:18.183Z,1005.76
2016-07-22T07:48:18.178Z,1005.77
2016-07-22T07:49:18.150Z,1005.82
2016-07-22T07:50:18.115Z,1005.82
2016-07-22T07:51:18.109Z,1005.81
2016-07-22T07:52:18.266Z,1005.82
2016-07-22T07:53:18.096Z,1005.8
2016-07-22T07:54:18.091Z,1005.75
2016-07-22T07:55:18.084Z,1005.78
2016-07-22T07:56:18.131Z,1005.74
2016-07-22T07:57:18.127Z,1005.78
2016-07-22T07:58:18.067Z,1005.8
2016-07-22T07:59:18.111Z,1005.82
2016-07-22T08:00:18.054Z,1005.8
2016-07-22T08:01:18.145Z,1005.86
2016-07-22T08:02:18.115Z,1005.84
2016-07-22T08:03:18.035Z,1005.85
2016-07-22T08:04:18.385Z,1005.88
2016-07-22T08:05:18.023Z,1005.86
2016-07-22T08:06:18.117Z,1005.91
2016-07-22T08:07:18.031Z,1005.92
2016-07-22T08:08:18.424Z,1005.94
2016-07-22T08:09:17.997Z,1005.93
2016-07-22T08:10:17.991Z,1005.97
2016-07-22T08:11:17.983Z,1005.96
2016-07-22T08:12:17.979Z,1005.95
2016-07-22T08:13:17.999Z,1005.95
2016-07-22T08:14:17.965Z,1005.97
2016-07-22T08:15:17.958Z,1005.97
2016-07-22T08:16:17.952Z,1005.99
2016-07-22T08:17:17.944Z,1005.95
2016-07-22T08:18:17.966Z,1005.99
2016-07-22T08:19:18.176Z,1005.95
2016-07-22T08:20:17.924Z,1005.9
2016-07-22T08:21:18.045Z,1005.93
2016-07-22T08:22:18.043Z,1005.9
2016-07-22T08:23:17.903Z,1005.87
2016-07-22T08:24:17.894Z,1005.87
2016-07-22T08:25:17.904Z,1005.83
2016-07-22T08:26:18.235Z,1005.85
2016-07-22T08:27:18.108Z,1005.83
2016-07-22T08:28:17.862Z,1005.81
2016-07-22T08:29:17.855Z,1005.77
2016-07-22T08:30:17.847Z,1005.77
2016-07-22T08:31:17.838Z,1005.75
2016-07-22T08:32:17.830Z,1005.81
2016-07-22T08:33:17.987Z,1005.81
2016-07-22T08:34:17.813Z,1005.82
2016-07-22T08:35:17.806Z,1005.9
2016-07-22T08:36:17.796Z,1005.85
2016-07-22T08:37:17.793Z,1005.85
2016-07-22T08:38:17.781Z,1005.87
2016-07-22T08:39:17.778Z,1005.92
2016-07-22T08:40:17.766Z,1005.92
2016-07-22T08:41:17.758Z,1005.9
2016-07-22T08:42:17.779Z,1005.88
2016-07-22T08:43:17.742Z,1005.9
2016-07-22T08:44:17.734Z,1005.89
2016-07-22T08:45:17.728Z,1005.91
2016-07-22T08:46:17.718Z,1005.88
2016-07-22T08:47:17.711Z,1005.86
2016-07-22T08:48:17.704Z,1005.88
2016-07-22T08:49:17.710Z,1005.88
2016-07-22T08:50:17.688Z,1005.94
2016-07-22T08:51:17.681Z,1005.9
2016-07-22T08:52:17.675Z,1005.9
2016-07-22T08:53:17.666Z,1005.91
2016-07-22T08:54:17.659Z,1005.9
2016-07-22T08:55:17.651Z,1005.89
2016-07-22T08:56:17.643Z,1005.95
2016-07-22T08:57:17.635Z,1006.02
2016-07-22T08:58:17.637Z,1005.9
2016-07-22T08:59:17.829Z,1005.96
2016-07-22T09:00:17.792Z,1006
2016-07-22T09:01:17.604Z,1006.05
2016-07-22T09:02:17.708Z,1006
2016-07-22T09:03:17.766Z,1005.95
2016-07-22T09:04:17.584Z,1005.95
2016-07-22T09:05:17.572Z,1005.94
2016-07-22T09:06:17.563Z,1005.95
2016-07-22T09:07:17.555Z,1006
2016-07-22T09:08:17.547Z,1006
2016-07-22T09:09:17.538Z,1005.95
2016-07-22T09:10:17.529Z,1005.98
2016-07-22T09:11:17.519Z,1005.95
2016-07-22T09:12:17.510Z,1005.97
2016-07-22T09:13:17.500Z,1005.94
2016-07-22T09:14:17.492Z,1005.94
2016-07-22T09:15:17.483Z,1005.93
2016-07-22T09:16:17.472Z,1005.91
2016-07-22T09:17:17.462Z,1006.02
2016-07-22T09:18:17.452Z,1005.95
2016-07-22T09:19:17.442Z,1005.93
2016-07-22T09:20:17.432Z,1006.05
2016-07-22T09:21:17.423Z,1005.97
2016-07-22T09:22:17.414Z,1005.98
2016-07-22T09:23:17.404Z,1006.03
2016-07-22T09:24:17.394Z,1005.96
2016-07-22T09:25:17.648Z,1006.06
2016-07-22T09:26:17.668Z,1006.18
2016-07-22T09:27:17.365Z,1006.07
2016-07-22T09:28:17.403Z,1006.27
2016-07-22T09:29:17.350Z,1006.19
2016-07-22T09:30:17.458Z,1006.27
2016-07-22T09:31:17.330Z,1006.26
2016-07-22T09:32:17.320Z,1006.34
2016-07-22T09:33:17.411Z,1006.25
2016-07-22T09:34:17.579Z,1006.24
2016-07-22T09:35:17.292Z,1006.26
2016-07-22T09:36:17.288Z,1006.31
2016-07-22T09:37:17.273Z,1006.32
2016-07-22T09:38:17.265Z,1006.26
2016-07-22T09:39:17.254Z,1006.31
2016-07-22T09:40:17.261Z,1006.3
2016-07-22T09:41:17.235Z,1006.36
2016-07-22T09:42:17.225Z,1006.44
2016-07-22T09:43:17.215Z,1006.48
2016-07-22T09:44:17.208Z,1006.44
2016-07-22T09:45:17.196Z,1006.41
2016-07-22T09:46:17.186Z,1006.45
2016-07-22T09:47:17.207Z,1006.46
2016-07-22T09:48:17.165Z,1006.49
2016-07-22T09:49:17.152Z,1006.49
2016-07-22T09:50:17.259Z,1006.7
2016-07-22T09:51:17.174Z,1006.58
2016-07-22T09:52:17.385Z,1006.64
2016-07-22T09:53:17.164Z,1006.61
2016-07-22T09:54:17.155Z,1006.58
2016-07-22T09:55:17.147Z,1006.52
2016-07-22T09:56:17.136Z,1006.57
2016-07-22T09:57:17.069Z,1006.54
2016-07-22T09:58:17.123Z,1006.54
2016-07-22T09:59:17.048Z,1006.62
2016-07-22T10:00:17.093Z,1006.64
2016-07-22T10:01:17.092Z,1006.58
2016-07-22T10:02:17.066Z,1006.69
2016-07-22T10:03:17.071Z,1006.78
2016-07-22T10:04:17.044Z,1006.77
2016-07-22T10:05:17.029Z,1006.65
2016-07-22T10:06:17.022Z,1006.55
2016-07-22T10:07:17.006Z,1006.6
2016-07-22T10:08:17.050Z,1006.71
2016-07-22T10:09:16.928Z,1006.61
2016-07-22T10:10:16.917Z,1006.63
2016-07-22T10:11:16.906Z,1006.56
2016-07-22T10:12:16.894Z,1006.67
2016-07-22T10:13:16.882Z,1006.58
2016-07-22T10:14:16.887Z,1006.74
2016-07-22T10:15:16.860Z,1006.47
2016-07-22T10:16:16.845Z,1006.5
2016-07-22T10:17:16.833Z,1006.69
2016-07-22T10:18:16.821Z,1006.57
2016-07-22T10:19:16.857Z,1006.6
2016-07-22T10:20:16.865Z,1006.39
2016-07-22T10:21:16.840Z,1006.57
2016-07-22T10:22:16.829Z,1006.4
2016-07-22T10:23:16.763Z,1006.52
2016-07-22T10:24:16.756Z,1006.48
2016-07-22T10:25:16.908Z,1006.55
2016-07-22T10:26:16.787Z,1006.4
2016-07-22T10:27:16.803Z,1006.41
2016-07-22T10:28:16.963Z,1006.48
2016-07-22T10:29:16.763Z,1006.39
2016-07-22T10:30:16.814Z,1006.35
2016-07-22T10:31:16.843Z,1006.49
2016-07-22T10:32:17.048Z,1006.38
2016-07-22T10:33:16.690Z,1006.35
2016-07-22T10:34:16.656Z,1006.43
2016-07-22T10:35:16.670Z,1006.35
2016-07-22T10:36:16.640Z,1006.43
2016-07-22T10:37:16.724Z,1006.27
2016-07-22T10:38:16.623Z,1006.25
2016-07-22T10:39:16.614Z,1006.26
2016-07-22T10:40:16.606Z,1006.18
2016-07-22T10:41:16.631Z,1006.18
2016-07-22T10:42:16.589Z,1006.2
2016-07-22T10:43:16.637Z,1006.24
2016-07-22T10:44:16.576Z,1006.18
2016-07-22T10:45:16.566Z,1006.29
2016-07-22T10:46:16.559Z,1006.22
2016-07-22T10:47:16.550Z,1006.25
2016-07-22T10:48:16.544Z,1006.2
2016-07-22T10:49:16.592Z,1006.33
2016-07-22T10:50:16.527Z,1006.37
2016-07-22T10:51:16.524Z,1006.17
2016-07-22T10:52:16.511Z,1006.27
2016-07-22T10:53:16.504Z,1006.22
2016-07-22T10:54:16.494Z,1006.23
2016-07-22T10:55:16.486Z,1006.19
2016-07-22T10:56:16.477Z,1006.22
2016-07-22T10:57:16.469Z,1006.33
2016-07-22T10:58:16.461Z,1006.23
2016-07-22T10:59:16.452Z,1006.3
2016-07-22T11:00:16.444Z,1006.32
2016-07-22T11:01:16.436Z,1006.4
2016-07-22T11:02:16.427Z,1006.35
2016-07-22T11:03:16.418Z,1006.3
2016-07-22T11:04:16.411Z,1006.22
2016-07-22T11:05:16.399Z,1006.25
2016-07-22T11:06:16.392Z,1006.29
2016-07-22T11:07:16.384Z,1006.29
2016-07-22T11:08:16.374Z,1006.35
2016-07-22T11:09:16.363Z,1006.43
2016-07-22T11:10:16.357Z,1006.45
2016-07-22T11:11:16.346Z,1006.42
2016-07-22T11:12:16.338Z,1006.47
2016-07-22T11:13:16.327Z,1006.4
2016-07-22T11:14:16.323Z,1006.39
2016-07-22T11:15:16.309Z,1006.42
2016-07-22T11:16:16.313Z,1006.38
2016-07-22T11:17:16.289Z,1006.48
2016-07-22T11:18:16.281Z,1006.43
2016-07-22T11:19:16.271Z,1006.49
2016-07-22T11:20:16.260Z,1006.38
2016-07-22T11:21:16.250Z,1006.34
2016-07-22T11:22:16.241Z,1006.37
2016-07-22T11:23:16.234Z,1006.3
2016-07-22T11:24:16.222Z,1006.31
2016-07-22T11:25:16.213Z,1006.26
2016-07-22T11:26:16.205Z,1006.26
2016-07-22T11:27:16.197Z,1006.23
2016-07-22T11:28:16.189Z,1006.26
2016-07-22T11:29:16.181Z,1006.26
2016-07-22T11:30:16.177Z,1006.2
2016-07-22T11:31:16.164Z,1006.2
2016-07-22T11:32:16.158Z,1006.21
2016-07-22T11:33:16.155Z,1006.15
2016-07-22T11:34:16.145Z,1006.1
2016-07-22T11:35:16.138Z,1006.13
2016-07-22T11:36:16.133Z,1006.12
2016-07-22T11:37:16.128Z,1006.17
2016-07-22T11:38:16.119Z,1006.18
2016-07-22T11:39:16.117Z,1006.2
2016-07-22T11:40:16.109Z,1006.26
2016-07-22T11:41:16.103Z,1006.3
2016-07-22T11:42:16.097Z,1006.32
2016-07-22T11:43:16.105Z,1006.28
2016-07-22T11:44:16.084Z,1006.37
2016-07-22T11:45:16.193Z,1006.34
2016-07-22T11:46:16.142Z,1006.41
2016-07-22T11:47:16.211Z,1006.39
2016-07-22T11:48:16.059Z,1006.44
2016-07-22T11:49:16.162Z,1006.45
2016-07-22T11:50:16.291Z,1006.47
2016-07-22T11:51:16.329Z,1006.47
2016-07-22T11:52:16.032Z,1006.39
2016-07-22T11:53:16.019Z,1006.42
2016-07-22T11:54:16.571Z,1006.42
2016-07-22T11:55:16.475Z,1006.48
2016-07-22T11:56:16.108Z,1006.5
2016-07-22T11:57:16.496Z,1006.38
2016-07-22T11:58:16.201Z,1006.38
2016-07-22T11:59:16.151Z,1006.3
2016-07-22T12:00:16.128Z,1006.34
2016-07-22T12:01:16.125Z,1006.36
2016-07-22T12:02:16.020Z,1006.37
2016-07-22T12:03:16.086Z,1006.41
2016-07-22T12:04:16.027Z,1006.42
2016-07-22T12:05:16.052Z,1006.41
2016-07-22T12:06:15.926Z,1006.4
2016-07-22T12:07:16.320Z,1006.45
2016-07-22T12:08:16.052Z,1006.41
2016-07-22T12:09:15.918Z,1006.37
2016-07-22T12:10:15.948Z,1006.42